Time;durP1;ratioP1;P1;durP2;ratioP2;P2;SDS_P1;SDS_P2;PMS_P1;PMS_P2;Temp;Humidity;BMP_temperature;BMP_pressure;BME280_temperature;BME280_humidity;BME280_pressure;Samples;Min_cycle;Max_cycle;Signal;HPM_P1;HPM_P2
2022/07/31 00:00:17;;;;;;;3.97;3.57;;;;;;;19.14;100.00;99233.97;5049444;28;20744;-81
2022/07/31 00:02:45;;;;;;;4.00;3.70;;;;;;;18.97;100.00;99233.59;5047956;28;20225;-81
2022/07/31 00:05:12;;;;;;;4.30;3.90;;;;;;;18.85;100.00;99239.34;5046068;28;20236;-81
2022/07/31 00:07:38;;;;;;;4.50;3.87;;;;;;;18.92;100.00;99237.16;5051822;28;20319;-81
2022/07/31 00:10:06;;;;;;;4.10;3.70;;;;;;;18.95;100.00;99233.84;5048514;28;20240;-78
2022/07/31 00:12:33;;;;;;;3.73;3.43;;;;;;;18.99;100.00;99243.06;5047204;28;20245;-82
2022/07/31 00:15:02;;;;;;;4.13;3.50;;;;;;;18.95;100.00;99250.16;5046078;28;20269;-79
2022/07/31 00:17:28;;;;;;;3.80;3.50;;;;;;;18.87;100.00;99245.34;5051690;28;20235;-79
2022/07/31 00:19:55;;;;;;;4.07;3.70;;;;;;;18.99;100.00;99243.06;5048784;28;20747;-79
2022/07/31 00:22:21;;;;;;;3.40;3.20;;;;;;;19.00;100.00;99244.69;5049256;28;20247;-80
2022/07/31 00:24:48;;;;;;;3.70;3.40;;;;;;;19.11;100.00;99246.22;5049602;28;20712;-76
2022/07/31 00:27:14;;;;;;;3.97;3.70;;;;;;;19.06;100.00;99248.97;5058311;28;20239;-78
2022/07/31 00:29:41;;;;;;;3.70;3.40;;;;;;;18.96;100.00;99238.19;5055784;28;20311;-78
2022/07/31 00:32:08;;;;;;;3.80;3.50;;;;;;;18.92;100.00;99248.00;5060871;28;20250;-78
2022/07/31 00:34:34;;;;;;;5.53;3.47;;;;;;;18.94;100.00;99250.44;5053912;28;20244;-77
2022/07/31 00:37:01;;;;;;;4.10;3.80;;;;;;;18.97;100.00;99247.97;5047203;28;20314;-78
2022/07/31 00:39:29;;;;;;;4.23;3.50;;;;;;;18.96;100.00;99254.50;5051133;28;20915;-77
2022/07/31 00:41:56;;;;;;;3.50;3.30;;;;;;;19.03;100.00;99248.75;5055762;28;20720;-78
2022/07/31 00:44:23;;;;;;;3.70;3.40;;;;;;;18.86;100.00;99249.94;5055455;28;20230;-78
2022/07/31 00:46:51;;;;;;;4.13;3.57;;;;;;;18.99;100.00;99262.06;5069231;28;20227;-78
2022/07/31 00:49:18;;;;;;;4.13;3.63;;;;;;;18.97;100.00;99250.69;5070423;28;20225;-78
2022/07/31 00:51:45;;;;;;;3.50;3.20;;;;;;;19.08;100.00;99254.13;5065286;28;20230;-77
2022/07/31 00:54:12;;;;;;;3.40;3.20;;;;;;;19.08;100.00;99248.72;5054929;28;20231;-76
2022/07/31 00:56:50;;;;;;;3.90;3.50;;;;;;;18.97;100.00;99244.44;5057227;28;20221;-76
2022/07/31 00:59:17;;;;;;;3.80;3.50;;;;;;;18.97;100.00;99252.59;5059975;28;20223;-80
2022/07/31 01:01:51;;;;;;;3.50;3.30;;;;;;;19.03;100.00;99256.91;5062846;28;20237;-79
2022/07/31 01:04:18;;;;;;;3.50;3.20;;;;;;;19.10;100.00;99250.03;5063947;28;20271;-78
2022/07/31 01:06:46;;;;;;;3.20;3.00;;;;;;;18.96;100.00;99254.50;5070122;28;20227;-78
2022/07/31 01:09:13;;;;;;;3.67;3.37;;;;;;;18.90;100.00;99261.03;5070042;28;20235;-78
2022/07/31 01:12:01;;;;;;;3.70;3.20;;;;;;;18.89;100.00;99248.59;5066283;28;20266;-77
2022/07/31 01:14:33;;;;;;;3.50;3.20;;;;;;;18.86;100.00;99255.38;5044604;28;20231;-77
2022/07/31 01:17:00;;;;;;;3.90;3.50;;;;;;;18.79;100.00;99260.31;5046766;28;20700;-77
2022/07/31 01:19:40;;;;;;;3.10;2.90;;;;;;;18.82;100.00;99254.31;5041794;28;20252;-77
2022/07/31 01:22:29;;;;;;;3.53;3.23;;;;;;;18.76;100.00;99255.44;5024371;28;20241;-76
2022/07/31 01:25:32;;;;;;;3.30;3.07;;;;;;;18.71;100.00;99255.47;5042283;28;20268;-77
2022/07/31 01:28:27;;;;;;;3.37;3.17;;;;;;;18.73;100.00;99245.16;5057649;28;20665;-74
2022/07/31 01:31:01;;;;;;;3.23;3.00;;;;;;;18.73;100.00;99241.63;5047751;28;20234;-79
2022/07/31 01:33:54;;;;;;;3.40;3.10;;;;;;;18.65;100.00;99228.66;5034591;28;20825;-74
2022/07/31 01:36:23;;;;;;;3.40;3.10;;;;;;;18.53;100.00;99241.72;5057582;28;20240;-75
2022/07/31 01:38:53;;;;;;;3.57;3.33;;;;;;;18.44;100.00;99242.31;5038010;28;20223;-76
2022/07/31 01:41:29;;;;;;;3.40;3.10;;;;;;;18.44;100.00;99236.09;5039744;28;20257;-75
2022/07/31 01:43:57;;;;;;;3.70;3.30;;;;;;;18.57;100.00;99248.25;5043799;28;20263;-76
2022/07/31 01:46:25;;;;;;;3.53;3.30;;;;;;;18.49;100.00;99258.56;5057519;28;20227;-78
2022/07/31 01:48:53;;;;;;;4.07;3.40;;;;;;;18.43;100.00;99245.31;5035188;28;20229;-78
2022/07/31 01:51:22;;;;;;;4.63;3.20;;;;;;;18.40;100.00;99243.16;5066039;28;20316;-74
2022/07/31 01:53:49;;;;;;;3.93;3.30;;;;;;;18.52;100.00;99238.22;5025523;28;20231;-77
2022/07/31 01:56:17;;;;;;;3.90;3.60;;;;;;;18.47;100.00;99230.13;5029524;28;20226;-80
2022/07/31 01:58:46;;;;;;;3.80;3.40;;;;;;;18.32;100.00;99239.16;5045565;28;20226;-77
2022/07/31 02:01:31;;;;;;;3.57;3.27;;;;;;;18.32;100.00;99241.03;5038856;28;20248;-78
2022/07/31 02:04:01;;;;;;;4.13;3.73;;;;;;;18.35;100.00;99232.34;5015122;28;20246;-73
2022/07/31 02:06:29;;;;;;;4.20;3.53;;;;;;;18.49;100.00;99234.16;5059044;28;20226;-78
2022/07/31 02:08:58;;;;;;;4.17;3.77;;;;;;;18.41;100.00;99232.03;5002022;28;20606;-75
2022/07/31 02:11:25;;;;;;;3.70;3.40;;;;;;;18.33;100.00;99234.53;5026058;28;20326;-76
2022/07/31 02:13:52;;;;;;;3.83;3.43;;;;;;;18.32;100.00;99228.28;5022170;28;20237;-77
2022/07/31 02:16:20;;;;;;;3.70;3.40;;;;;;;18.36;100.00;99228.53;5040431;28;20297;-75
2022/07/31 02:18:52;;;;;;;4.80;3.20;;;;;;;18.28;100.00;99229.94;5023620;28;20576;-74
2022/07/31 02:21:24;;;;;;;3.53;3.23;;;;;;;18.23;100.00;99229.97;5023172;28;20296;-76
2022/07/31 02:23:52;;;;;;;4.13;3.77;;;;;;;18.19;100.00;99233.53;5027468;28;20226;-75
2022/07/31 02:26:19;;;;;;;4.20;3.90;;;;;;;18.20;100.00;99230.50;5029138;28;20321;-75
2022/07/31 02:28:46;;;;;;;4.10;3.70;;;;;;;18.10;100.00;99236.00;5027312;28;20983;-75
2022/07/31 02:31:14;;;;;;;4.40;4.00;;;;;;;18.13;100.00;99227.31;5013144;28;20269;-79
2022/07/31 02:33:45;;;;;;;4.40;4.00;;;;;;;18.23;100.00;99224.56;5031325;28;20242;-79
2022/07/31 02:36:15;;;;;;;4.40;4.00;;;;;;;18.19;100.00;99228.09;5014860;28;20245;-79
2022/07/31 02:38:43;;;;;;;4.30;4.00;;;;;;;18.20;100.00;99230.50;5038882;28;20233;-79
2022/07/31 02:41:10;;;;;;;4.57;4.17;;;;;;;18.19;100.00;99230.81;5059413;28;20240;-78
2022/07/31 02:43:37;;;;;;;4.40;4.00;;;;;;;18.10;100.00;99241.44;5039152;28;20312;-78
2022/07/31 02:46:13;;;;;;;6.00;3.90;;;;;;;17.99;100.00;99229.81;5047451;28;20260;-80
2022/07/31 02:48:40;;;;;;;4.50;4.20;;;;;;;18.14;100.00;99236.25;5031783;28;20300;-78
2022/07/31 02:51:10;;;;;;;4.40;4.10;;;;;;;18.16;100.00;99237.59;5024472;28;20221;-77
2022/07/31 02:53:40;;;;;;;5.03;4.47;;;;;;;18.04;100.00;99237.94;5041987;28;20229;-79
2022/07/31 02:56:08;;;;;;;4.63;4.23;;;;;;;18.07;100.00;99235.72;5044766;28;20766;-78
2022/07/31 02:58:40;;;;;;;4.73;4.30;;;;;;;18.04;100.00;99245.25;5059857;28;20225;-79
2022/07/31 03:01:13;;;;;;;4.63;4.23;;;;;;;18.17;100.00;99241.94;5039354;28;20233;-78
2022/07/31 03:03:41;;;;;;;4.67;4.27;;;;;;;18.03;100.00;99240.91;5048630;28;20237;-79
2022/07/31 03:06:09;;;;;;;4.60;4.20;;;;;;;17.98;100.00;99228.19;5028443;28;20239;-78
2022/07/31 03:08:37;;;;;;;4.90;4.40;;;;;;;18.00;100.00;99236.03;5047179;28;20229;-77
2022/07/31 03:11:04;;;;;;;5.90;4.20;;;;;;;17.97;100.00;99237.41;5044224;28;20271;-77
2022/07/31 03:13:32;;;;;;;4.93;4.47;;;;;;;17.91;100.00;99230.41;5046457;28;20325;-78
2022/07/31 03:16:00;;;;;;;4.90;4.50;;;;;;;17.88;100.00;99243.66;5050190;28;20256;-78
2022/07/31 03:18:27;;;;;;;4.50;4.20;;;;;;;17.96;100.00;99245.81;5029251;28;20639;-79
2022/07/31 03:20:55;;;;;;;5.07;4.57;;;;;;;18.10;100.00;99240.63;5028378;28;20297;-78
2022/07/31 03:23:24;;;;;;;5.17;4.70;;;;;;;18.14;100.00;99247.91;5038089;28;20296;-79
2022/07/31 03:26:01;;;;;;;5.20;4.77;;;;;;;18.10;100.00;99241.44;5046836;28;20233;-78
2022/07/31 03:28:27;;;;;;;5.00;4.60;;;;;;;18.09;100.00;99239.81;5028008;28;20241;-79
2022/07/31 03:30:55;;;;;;;5.30;4.67;;;;;;;18.24;100.00;99247.88;5030906;28;20257;-79
2022/07/31 03:33:25;;;;;;;5.20;4.70;;;;;;;18.10;100.00;99259.59;5028896;28;20261;-78
2022/07/31 03:35:52;;;;;;;4.67;4.27;;;;;;;18.12;100.00;99249.25;5026583;28;20230;-77
2022/07/31 03:38:19;;;;;;;4.93;4.53;;;;;;;18.36;100.00;99248.34;5032785;28;20723;-78
2022/07/31 03:41:06;;;;;;;5.13;4.63;;;;;;;18.32;100.00;99262.75;5034615;28;20229;-80
2022/07/31 03:43:34;;;;;;;5.37;4.87;;;;;;;18.39;100.00;99263.22;5057605;28;20669;-78
2022/07/31 03:46:14;;;;;;;4.97;4.57;;;;;;;18.39;100.00;99253.19;5015476;28;20284;-77
2022/07/31 03:48:41;;;;;;;5.13;4.63;;;;;;;18.57;100.00;99269.97;5026903;28;20600;-78
2022/07/31 03:51:08;;;;;;;4.83;4.43;;;;;;;18.53;100.00;99255.28;5030338;28;20271;-79
2022/07/31 03:53:35;;;;;;;5.10;4.60;;;;;;;18.54;100.00;99263.19;5024390;28;20235;-78
2022/07/31 03:56:04;;;;;;;4.77;4.47;;;;;;;18.49;100.00;99265.88;5029619;28;20701;-78
2022/07/31 03:58:31;;;;;;;5.23;4.73;;;;;;;18.39;100.00;99272.19;5015945;28;20237;-77
2022/07/31 04:00:58;;;;;;;5.03;4.63;;;;;;;18.44;100.00;99274.88;5029976;28;20249;-77
2022/07/31 04:03:29;;;;;;;5.00;4.13;;;;;;;18.68;100.00;99274.22;5020594;28;20265;-77
2022/07/31 04:06:18;;;;;;;4.50;4.10;;;;;;;18.51;100.00;99266.44;5038291;28;20234;-79
2022/07/31 04:08:45;;;;;;;4.23;3.93;;;;;;;18.46;100.00;99275.41;5037186;28;20237;-76
2022/07/31 04:11:12;;;;;;;4.67;4.27;;;;;;;18.43;100.00;99281.38;5037120;28;20233;-77
2022/07/31 04:13:38;;;;;;;3.90;3.60;;;;;;;18.49;100.00;99282.16;5016405;28;20239;-77
2022/07/31 04:16:05;;;;;;;4.30;3.90;;;;;;;18.62;100.00;99278.88;5035054;28;20230;-77
2022/07/31 04:18:33;;;;;;;4.03;3.70;;;;;;;18.74;100.00;99287.50;5034115;28;20229;-77
2022/07/31 04:20:59;;;;;;;4.13;3.73;;;;;;;18.90;100.00;99285.47;5031303;28;20250;-78
2022/07/31 04:23:26;;;;;;;4.03;3.73;;;;;;;18.90;100.00;99290.91;5033049;28;20235;-78
2022/07/31 04:26:16;;;;;;;3.90;3.60;;;;;;;18.92;100.00;99296.88;5059075;28;20231;-78
2022/07/31 04:28:57;;;;;;;4.50;3.90;;;;;;;19.07;100.00;99299.47;5034441;28;20649;-78
2022/07/31 04:31:24;;;;;;;4.43;4.03;;;;;;;19.33;100.00;99295.47;5032831;28;20234;-77
2022/07/31 04:33:52;;;;;;;4.50;4.10;;;;;;;19.32;100.00;99291.13;5053386;28;20234;-77
2022/07/31 04:36:22;;;;;;;4.40;4.00;;;;;;;19.48;100.00;99288.31;5050646;28;20245;-79
2022/07/31 04:38:58;;;;;;;4.70;3.73;;;;;;;19.51;100.00;99293.97;5069140;28;20580;-79
2022/07/31 04:41:25;;;;;;;4.47;4.07;;;;;;;19.42;100.00;99300.28;5056257;28;20312;-78
2022/07/31 04:43:52;;;;;;;4.47;4.10;;;;;;;19.53;100.00;99291.78;5054941;28;20230;-78
2022/07/31 04:46:20;;;;;;;4.17;3.87;;;;;;;19.60;100.00;99294.97;5051779;28;20264;-77
2022/07/31 04:48:46;;;;;;;4.20;3.80;;;;;;;19.81;100.00;99292.88;5049471;28;20977;-77
2022/07/31 04:51:19;;;;;;;3.63;3.43;;;;;;;19.88;100.00;99298.75;5053344;28;20255;-78
2022/07/31 04:53:48;;;;;;;3.80;3.50;;;;;;;20.07;96.49;99298.81;5053511;28;20316;-77
2022/07/31 04:56:34;;;;;;;3.87;3.47;;;;;;;20.24;92.90;99299.19;5051765;28;20296;-77
2022/07/31 04:59:07;;;;;;;4.00;3.53;;;;;;;20.42;91.14;99303.88;5054014;28;20901;-77
2022/07/31 05:01:35;;;;;;;3.60;3.30;;;;;;;20.56;90.04;99310.22;5055663;28;20290;-77
2022/07/31 05:04:03;;;;;;;3.40;3.10;;;;;;;20.80;84.63;99303.91;5055693;28;20598;-79
2022/07/31 05:06:43;;;;;;;3.70;3.40;;;;;;;20.92;85.13;99307.00;5041499;28;20619;-80
2022/07/31 05:09:12;;;;;;;4.00;3.70;;;;;;;20.99;83.95;99308.25;5049107;28;20743;-79
2022/07/31 05:11:46;;;;;;;3.63;3.40;;;;;;;21.17;80.91;99303.94;5034331;28;20703;-79
2022/07/31 05:14:15;;;;;;;3.40;3.20;;;;;;;21.21;81.86;99304.13;5035092;28;20243;-79
2022/07/31 05:16:42;;;;;;;4.37;3.20;;;;;;;21.22;81.02;99303.03;5026549;28;20243;-81
2022/07/31 05:19:09;;;;;;;3.73;3.40;;;;;;;21.45;78.92;99311.09;5041152;28;20233;-80
2022/07/31 05:21:56;;;;;;;3.50;3.30;;;;;;;21.59;76.36;99313.84;5052241;28;20234;-79
2022/07/31 05:24:46;;;;;;;3.67;3.33;;;;;;;21.63;76.69;99308.59;5061924;28;20306;-79
2022/07/31 05:27:13;;;;;;;4.07;3.67;;;;;;;21.55;76.68;99315.56;5062940;28;20287;-79
2022/07/31 05:29:41;;;;;;;4.90;3.67;;;;;;;21.32;78.90;99298.19;5057262;28;20232;-79
2022/07/31 05:32:08;;;;;;;3.67;3.37;;;;;;;21.27;79.37;99320.13;5046075;28;20232;-79
2022/07/31 05:34:36;;;;;;;4.20;3.90;;;;;;;21.35;79.47;99311.25;5050988;28;20281;-80
2022/07/31 05:37:03;;;;;;;3.87;3.57;;;;;;;21.23;81.86;99323.72;5060269;28;20917;-80
2022/07/31 05:39:33;;;;;;;4.20;3.80;;;;;;;21.01;84.36;99322.38;5038214;28;20580;-79
2022/07/31 05:42:18;;;;;;;3.97;3.67;;;;;;;21.05;83.76;99326.13;5049324;28;20599;-78
2022/07/31 05:45:01;;;;;;;3.50;3.30;;;;;;;20.97;83.54;99315.91;5049696;28;20220;-79
2022/07/31 05:47:28;;;;;;;3.73;3.53;;;;;;;20.99;83.16;99315.63;5084258;28;20239;-80
2022/07/31 05:50:08;;;;;;;3.80;3.50;;;;;;;20.91;86.14;99324.44;5049813;28;20691;-79
2022/07/31 05:52:35;;;;;;;3.73;3.43;;;;;;;20.96;84.38;99322.44;5053138;28;20229;-80
2022/07/31 05:55:28;;;;;;;4.10;3.70;;;;;;;20.94;86.83;99332.03;5029497;28;20254;-80
2022/07/31 05:58:14;;;;;;;4.10;3.47;;;;;;;20.69;85.57;99319.56;5058335;28;20604;-79
2022/07/31 06:00:45;;;;;;;3.60;3.27;;;;;;;20.58;89.34;99323.53;5052116;28;20244;-80
2022/07/31 06:03:12;;;;;;;3.73;3.43;;;;;;;20.82;85.96;99326.19;5062777;28;20225;-79
2022/07/31 06:05:56;;;;;;;4.20;3.40;;;;;;;21.00;84.94;99315.31;5044047;28;20248;-79
2022/07/31 06:08:25;;;;;;;3.63;3.33;;;;;;;21.18;82.56;99326.53;5056519;28;20235;-80
2022/07/31 06:10:51;;;;;;;4.73;3.40;;;;;;;21.35;80.91;99335.78;5047464;28;20261;-79
2022/07/31 06:13:23;;;;;;;4.20;3.03;;;;;;;21.52;75.95;99327.84;5044546;28;20731;-80
2022/07/31 06:15:50;;;;;;;4.23;2.83;;;;;;;21.51;72.22;99320.78;5056866;28;20328;-79
2022/07/31 06:18:16;;;;;;;4.57;3.13;;;;;;;21.59;77.15;99332.13;5042777;28;20242;-79
2022/07/31 06:20:43;;;;;;;3.90;2.80;;;;;;;21.75;75.37;99328.00;5054742;28;20241;-79
2022/07/31 06:23:10;;;;;;;2.90;2.60;;;;;;;21.86;74.43;99316.63;5059736;28;20286;-80
2022/07/31 06:25:56;;;;;;;3.20;3.00;;;;;;;21.87;73.66;99333.81;5049475;28;20667;-79
2022/07/31 06:28:24;;;;;;;3.10;2.80;;;;;;;21.96;72.41;99318.38;5044369;28;20694;-79
2022/07/31 06:31:16;;;;;;;2.93;2.73;;;;;;;22.03;69.09;99324.25;5055200;28;20317;-79
2022/07/31 06:33:42;;;;;;;3.20;3.00;;;;;;;22.08;68.95;99324.16;5051112;28;20259;-79
2022/07/31 06:36:16;;;;;;;3.10;2.90;;;;;;;22.09;71.49;99330.41;5040387;28;20309;-79
2022/07/31 06:39:02;;;;;;;2.93;2.73;;;;;;;22.10;67.60;99332.84;5042060;28;20607;-79
2022/07/31 06:41:45;;;;;;;3.43;2.90;;;;;;;22.27;66.52;99330.31;5042895;28;20699;-79
2022/07/31 06:44:27;;;;;;;3.00;2.80;;;;;;;22.26;64.71;99333.34;5036062;28;20233;-79
2022/07/31 06:47:13;;;;;;;3.67;2.87;;;;;;;22.30;62.19;99318.00;5045281;28;20309;-78
2022/07/31 06:49:54;;;;;;;3.00;2.70;;;;;;;22.25;64.68;99321.66;5037976;28;20235;-79
2022/07/31 06:52:24;;;;;;;2.87;2.57;;;;;;;22.28;65.28;99325.66;5056656;28;20233;-79
2022/07/31 06:54:52;;;;;;;2.97;2.77;;;;;;;22.48;62.94;99329.91;5053887;28;20285;-79
2022/07/31 06:57:18;;;;;;;3.70;2.80;;;;;;;22.48;64.77;99329.91;5041999;28;20311;-79
2022/07/31 06:59:45;;;;;;;2.80;2.60;;;;;;;22.23;64.77;99334.75;5041558;28;20228;-79
2022/07/31 07:02:13;;;;;;;3.33;2.83;;;;;;;22.31;65.53;99336.78;5035194;28;20227;-79
2022/07/31 07:04:40;;;;;;;2.83;2.60;;;;;;;22.61;63.90;99318.97;5040632;28;20241;-78
2022/07/31 07:07:26;;;;;;;2.50;2.30;;;;;;;22.57;62.32;99322.63;5041412;28;20249;-79
2022/07/31 07:09:59;;;;;;;2.80;2.60;;;;;;;22.70;62.00;99325.34;5074894;28;20255;-79
2022/07/31 07:12:44;;;;;;;2.60;2.40;;;;;;;22.81;61.82;99325.94;5040680;28;20242;-79
2022/07/31 07:15:13;;;;;;;3.30;2.33;;;;;;;22.81;59.07;99317.75;5043044;28;20316;-80
2022/07/31 07:17:40;;;;;;;2.80;2.20;;;;;;;22.82;57.52;99327.53;5055419;28;20286;-78
2022/07/31 07:20:13;;;;;;;2.60;2.07;;;;;;;22.68;55.22;99310.34;5041714;28;20247;-79
2022/07/31 07:22:40;;;;;;;3.13;2.00;;;;;;;22.81;55.87;99328.69;5051571;28;20295;-80
2022/07/31 07:25:07;;;;;;;2.13;1.93;;;;;;;22.83;56.43;99327.25;5049643;28;20278;-79
2022/07/31 07:27:34;;;;;;;2.50;2.30;;;;;;;22.92;58.30;99321.84;5041763;28;20229;-79
2022/07/31 07:30:01;;;;;;;2.35;2.05;;;;;;;23.07;58.59;99321.50;5041385;28;20980;-78
2022/07/31 07:32:28;;;;;;;2.50;2.07;;;;;;;23.17;54.21;99324.00;5042244;28;20227;-79
2022/07/31 07:34:54;;;;;;;2.00;1.90;;;;;;;23.26;50.51;99313.94;5078035;28;20240;-80
2022/07/31 07:37:45;;;;;;;4.53;2.30;;;;;;;23.23;51.09;99311.03;5059471;28;20229;-80
2022/07/31 07:40:13;;;;;;;3.20;1.90;;;;;;;23.17;52.38;99317.72;5049663;28;20225;-78
2022/07/31 07:42:40;;;;;;;2.10;2.00;;;;;;;23.37;53.08;99327.38;5055483;28;20415;-82
2022/07/31 07:45:07;;;;;;;2.70;2.50;;;;;;;23.60;54.51;99318.06;5056117;28;20239;-79
2022/07/31 07:47:35;;;;;;;2.97;2.78;;;;;;;23.62;57.28;99311.16;5053597;28;20251;-79
2022/07/31 07:50:22;;;;;;;5.07;3.50;;;;;;;23.51;58.79;99315.28;5044724;28;20279;-79
2022/07/31 07:53:15;;;;;;;4.18;3.03;;;;;;;23.72;57.14;99301.88;5043664;28;20601;-78
2022/07/31 07:56:15;;;;;;;3.78;3.05;;;;;;;23.87;60.38;99303.41;5049776;28;20763;-79
2022/07/31 07:59:00;;;;;;;3.30;3.10;;;;;;;24.07;57.66;99300.94;5050323;28;20235;-79
2022/07/31 08:01:49;;;;;;;5.78;3.13;;;;;;;23.68;58.20;99314.56;5053495;28;20242;-79
2022/07/31 08:04:21;;;;;;;3.40;3.10;;;;;;;23.76;58.86;99300.13;5041109;28;20286;-79
2022/07/31 08:06:48;;;;;;;4.00;3.08;;;;;;;23.79;60.92;99306.91;5053146;28;20230;-79
2022/07/31 08:09:16;;;;;;;3.83;3.45;;;;;;;23.93;59.80;99291.22;5051001;28;20661;-79
2022/07/31 08:12:14;;;;;;;3.03;2.72;;;;;;;23.89;57.49;99304.69;5047130;28;20237;-79
2022/07/31 08:15:00;;;;;;;3.20;2.88;;;;;;;24.00;57.64;99292.34;5052548;28;20237;-79
2022/07/31 08:17:45;;;;;;;3.35;2.90;;;;;;;24.03;58.40;99299.13;5049816;28;20293;-80
2022/07/31 08:20:13;;;;;;;3.30;3.00;;;;;;;24.24;57.53;99294.72;5050044;28;20236;-79
2022/07/31 08:22:39;;;;;;;3.80;3.50;;;;;;;24.46;56.24;99293.81;5049072;28;20279;-79
2022/07/31 08:25:06;;;;;;;3.72;2.90;;;;;;;24.43;53.70;99298.00;5050696;28;20253;-79
2022/07/31 08:27:43;;;;;;;4.25;3.17;;;;;;;24.38;56.16;99298.16;5083171;28;20225;-79
2022/07/31 08:30:14;;;;;;;3.30;3.00;;;;;;;24.63;56.86;99304.00;5048832;28;20239;-79
2022/07/31 08:32:41;;;;;;;4.05;3.60;;;;;;;24.63;54.73;99298.53;5029987;28;20358;-79
2022/07/31 08:35:28;;;;;;;4.32;3.13;;;;;;;24.68;54.06;99303.84;5048018;28;20234;-79
2022/07/31 08:37:55;;;;;;;3.20;2.90;;;;;;;24.68;54.02;99299.19;5065914;28;20237;-79
2022/07/31 08:40:37;;;;;;;4.10;2.85;;;;;;;24.86;51.52;99305.50;5048629;28;20228;-79
2022/07/31 08:43:11;;;;;;;2.88;2.67;;;;;;;24.85;50.91;99296.47;5053070;28;20222;-79
2022/07/31 08:46:01;;;;;;;3.40;3.10;;;;;;;25.26;51.42;99301.47;5051166;28;20982;-79
2022/07/31 08:48:32;;;;;;;3.35;3.05;;;;;;;25.23;50.36;99301.31;5032481;28;20696;-79
2022/07/31 08:51:01;;;;;;;4.45;3.08;;;;;;;24.97;50.67;99299.38;5051363;28;20686;-80
2022/07/31 08:53:52;;;;;;;3.55;3.10;;;;;;;25.03;53.25;99321.16;5039282;28;20657;-79
2022/07/31 08:56:19;;;;;;;3.30;2.97;;;;;;;25.22;51.30;99322.44;5052772;28;20662;-79
2022/07/31 08:58:47;;;;;;;3.22;3.00;;;;;;;25.20;49.45;99301.94;5057657;28;20253;-78
2022/07/31 09:01:14;;;;;;;2.90;2.70;;;;;;;25.08;49.08;99310.03;5055696;28;20233;-78
2022/07/31 09:03:41;;;;;;;3.70;3.40;;;;;;;25.31;50.00;99297.75;5056878;28;20731;-79
2022/07/31 09:06:13;;;;;;;3.67;3.38;;;;;;;25.86;49.66;99297.81;5038104;28;20239;-79
2022/07/31 09:08:40;;;;;;;4.78;3.22;;;;;;;25.51;49.76;99308.06;5017803;28;20246;-81
2022/07/31 09:11:10;;;;;;;3.15;2.90;;;;;;;25.55;49.54;99297.28;5069651;28;20249;-79
2022/07/31 09:13:56;;;;;;;3.97;3.15;;;;;;;25.70;49.09;99294.81;5051073;28;20752;-79
2022/07/31 09:16:49;;;;;;;3.40;3.10;;;;;;;25.84;48.26;99303.66;5069402;28;20378;-78
2022/07/31 09:19:21;;;;;;;3.20;2.92;;;;;;;25.74;48.57;99297.72;5081443;28;20302;-78
2022/07/31 09:22:21;;;;;;;4.13;3.03;;;;;;;25.92;47.45;99301.19;5048004;28;20231;-78
2022/07/31 09:24:49;;;;;;;3.65;3.10;;;;;;;25.57;49.59;99298.53;5050182;28;20232;-79
2022/07/31 09:27:16;;;;;;;2.75;2.40;;;;;;;25.46;44.91;99290.97;5058109;28;20255;-79
2022/07/31 09:29:45;;;;;;;3.95;2.97;;;;;;;25.29;47.37;99286.34;5034432;28;20240;-77
2022/07/31 09:32:26;;;;;;;3.63;3.00;;;;;;;25.46;48.88;99288.22;5045503;28;20306;-78
2022/07/31 09:35:09;;;;;;;5.38;3.40;;;;;;;25.58;49.92;99286.44;5060202;28;20232;-77
2022/07/31 09:37:38;;;;;;;3.30;3.00;;;;;;;26.05;50.57;99279.00;5034536;28;20235;-76
2022/07/31 09:40:33;;;;;;;4.60;3.17;;;;;;;26.50;48.68;99286.72;5033892;28;20236;-76
2022/07/31 09:43:23;;;;;;;3.50;3.30;;;;;;;26.37;46.91;99285.81;5052079;28;20234;-77
2022/07/31 09:45:59;;;;;;;3.63;3.33;;;;;;;26.18;46.95;99285.41;5055679;28;20233;-77
2022/07/31 09:48:27;;;;;;;4.82;3.08;;;;;;;26.55;47.35;99287.31;5056327;28;20231;-77
2022/07/31 09:50:59;;;;;;;3.72;3.42;;;;;;;26.54;49.17;99290.44;5057166;28;20226;-78
2022/07/31 09:53:49;;;;;;;4.15;3.58;;;;;;;26.32;49.15;99277.00;5030822;28;20425;-76
2022/07/31 09:56:45;;;;;;;3.72;3.40;;;;;;;26.03;49.73;99272.25;5057998;28;20227;-78
2022/07/31 09:59:12;;;;;;;3.40;3.20;;;;;;;26.05;51.63;99264.47;5059322;28;20239;-80
2022/07/31 10:01:40;;;;;;;4.60;3.60;;;;;;;26.13;49.22;99282.88;5053848;28;20239;-80
2022/07/31 10:04:07;;;;;;;5.05;3.00;;;;;;;25.97;48.27;99265.34;5056055;28;20227;-80
2022/07/31 10:06:34;;;;;;;3.90;3.50;;;;;;;26.17;49.28;99273.66;5042612;28;20698;-80
2022/07/31 10:09:03;;;;;;;4.00;3.00;;;;;;;26.18;49.13;99269.75;5067719;28;20299;-78
2022/07/31 10:11:52;;;;;;;4.63;3.05;;;;;;;26.21;46.74;99254.59;5057331;28;20237;-77
2022/07/31 10:14:27;;;;;;;4.18;3.13;;;;;;;26.57;46.53;99240.28;5047823;28;20253;-78
2022/07/31 10:16:56;;;;;;;3.33;3.03;;;;;;;26.53;48.11;99253.91;5055464;28;20258;-79
2022/07/31 10:19:40;;;;;;;3.55;3.35;;;;;;;26.98;46.01;99250.50;5047094;28;20611;-78
2022/07/31 10:22:31;;;;;;;3.80;3.10;;;;;;;27.08;46.12;99237.16;5043403;28;20247;-78
2022/07/31 10:25:00;;;;;;;3.20;2.90;;;;;;;27.31;42.16;99240.31;5048746;28;20236;-77
2022/07/31 10:27:31;;;;;;;4.13;2.88;;;;;;;27.28;41.71;99242.94;5048792;28;20240;-79
2022/07/31 10:30:07;;;;;;;3.47;3.03;;;;;;;27.37;42.13;99233.47;5048162;28;20239;-78
2022/07/31 10:32:39;;;;;;;3.83;2.53;;;;;;;27.51;40.67;99236.75;5049365;28;20240;-78
2022/07/31 10:35:29;;;;;;;3.22;2.55;;;;;;;27.34;39.29;99227.84;5016765;28;20245;-79
2022/07/31 10:38:42;;;;;;;4.68;2.78;;;;;;;27.45;40.62;99235.31;5047546;28;20613;-80
2022/07/31 10:41:35;;;;;;;3.30;2.50;;;;;;;27.34;38.49;99234.13;5032706;28;20232;-78
2022/07/31 10:44:10;;;;;;;2.38;2.17;;;;;;;27.53;38.64;99237.19;5047593;28;20225;-78
2022/07/31 10:46:56;;;;;;;2.30;2.20;;;;;;;27.46;38.23;99233.38;5058594;28;20236;-78
2022/07/31 10:49:43;;;;;;;4.07;2.40;;;;;;;27.25;36.20;99246.38;5035841;28;20292;-79
2022/07/31 10:52:37;;;;;;;2.15;1.90;;;;;;;27.48;36.59;99231.91;5040308;28;20603;-78
2022/07/31 10:55:24;;;;;;;2.65;2.45;;;;;;;27.89;37.27;99224.63;5043615;28;20320;-78
2022/07/31 10:58:11;;;;;;;2.47;2.28;;;;;;;27.93;36.84;99222.78;5041511;28;20575;-78
2022/07/31 11:00:52;;;;;;;5.00;2.28;;;;;;;27.83;37.53;99226.00;5040119;28;20595;-78
2022/07/31 11:03:37;;;;;;;2.58;2.38;;;;;;;27.26;36.99;99232.28;5048793;28;20251;-78
2022/07/31 11:06:20;;;;;;;2.10;2.00;;;;;;;27.14;36.27;99221.25;5047189;28;20221;-78
2022/07/31 11:08:53;;;;;;;2.72;2.10;;;;;;;27.43;36.38;99221.09;5049748;28;20240;-77
2022/07/31 11:11:58;;;;;;;3.03;2.00;;;;;;;27.89;35.40;99219.94;5006992;28;20257;-78
2022/07/31 11:14:39;;;;;;;2.08;1.95;;;;;;;28.01;34.55;99219.91;4972247;28;20593;-78
2022/07/31 11:17:35;;;;;;;2.50;2.10;;;;;;;28.09;35.29;99223.69;5027026;28;20240;-78
2022/07/31 11:20:38;;;;;;;2.35;2.20;;;;;;;28.22;34.52;99227.28;5048492;28;20324;-78
2022/07/31 11:23:07;;;;;;;2.92;1.92;;;;;;;29.02;33.85;99219.06;5049301;28;20774;-79
2022/07/31 11:25:35;;;;;;;2.38;2.17;;;;;;;28.58;33.33;99223.66;5045408;28;20317;-78
2022/07/31 11:28:22;;;;;;;2.35;2.15;;;;;;;28.19;33.82;99216.94;5047617;28;20751;-78
2022/07/31 11:30:53;;;;;;;2.40;2.20;;;;;;;27.80;34.16;99227.50;5046000;28;20237;-78
2022/07/31 11:33:29;;;;;;;3.65;2.20;;;;;;;27.73;35.25;99216.22;5046085;28;20229;-80
2022/07/31 11:36:20;;;;;;;2.75;2.40;;;;;;;27.91;34.15;99214.88;5045804;28;20251;-81
2022/07/31 11:38:48;;;;;;;2.70;2.50;;;;;;;27.59;35.15;99227.56;5042223;28;20253;-81
2022/07/31 11:41:16;;;;;;;2.50;2.10;;;;;;;27.98;35.11;99220.63;5047317;28;20249;-78
2022/07/31 11:43:49;;;;;;;2.08;1.98;;;;;;;28.40;33.44;99215.66;5045684;28;20242;-79
2022/07/31 11:46:27;;;;;;;2.22;2.05;;;;;;;27.95;34.40;99217.72;5048335;28;20721;-79
2022/07/31 11:48:54;;;;;;;3.25;2.20;;;;;;;27.94;34.85;99214.19;5045204;28;20229;-79
2022/07/31 11:51:22;;;;;;;3.25;2.60;;;;;;;27.65;35.36;99213.59;5044462;28;20240;-78
2022/07/31 11:53:50;;;;;;;2.50;2.30;;;;;;;27.54;34.10;99204.97;5049183;28;20771;-80
2022/07/31 11:56:24;;;;;;;2.92;2.20;;;;;;;27.55;35.16;99198.34;5043424;28;20229;-79
2022/07/31 11:58:54;;;;;;;2.53;2.10;;;;;;;27.48;34.91;99200.81;5043875;28;20224;-79